sensor_id;sensor_type;location;lat;lon;timestamp;temperature;humidity
43607;DHT22;29197;44.788;10.366;2023-01-29T00:50:29;5.90;99.90
43607;DHT22;29197;44.788;10.366;2023-01-29T00:53:19;4.90;99.90
43607;DHT22;29197;44.788;10.366;2023-01-29T00:56:08;4.40;99.90
43607;DHT22;29197;44.788;10.366;2023-01-29T00:58:56;4.20;99.90
43607;DHT22;29197;44.788;10.366;2023-01-29T01:01:45;4.30;99.90
43607;DHT22;29197;44.788;10.366;2023-01-29T01:04:50;4.50;99.90
43607;DHT22;29197;44.788;10.366;2023-01-29T01:07:39;4.80;99.90
43607;DHT22;29197;44.788;10.366;2023-01-29T01:10:30;4.80;99.90
43607;DHT22;29197;44.788;10.366;2023-01-29T01:13:18;4.80;99.90
43607;DHT22;29197;44.788;10.366;2023-01-29T01:16:09;4.80;99.90
43607;DHT22;29197;44.788;10.366;2023-01-29T01:18:57;4.80;99.90
43607;DHT22;29197;44.788;10.366;2023-01-29T01:21:46;4.80;99.90
43607;DHT22;29197;44.788;10.366;2023-01-29T01:24:34;4.80;99.90
43607;DHT22;29197;44.788;10.366;2023-01-29T01:27:24;4.80;99.90
43607;DHT22;29197;44.788;10.366;2023-01-29T01:30:14;4.70;99.90
43607;DHT22;29197;44.788;10.366;2023-01-29T01:33:03;4.80;99.90
43607;DHT22;29197;44.788;10.366;2023-01-29T01:35:52;4.90;99.90
43607;DHT22;29197;44.788;10.366;2023-01-29T01:38:40;4.80;99.90
43607;DHT22;29197;44.788;10.366;2023-01-29T01:41:31;4.80;99.90
43607;DHT22;29197;44.788;10.366;2023-01-29T01:44:54;4.80;99.90
43607;DHT22;29197;44.788;10.366;2023-01-29T01:47:47;4.70;99.90
43607;DHT22;29197;44.788;10.366;2023-01-29T01:50:40;4.70;99.90
43607;DHT22;29197;44.788;10.366;2023-01-29T01:53:33;4.60;99.90
43607;DHT22;29197;44.788;10.366;2023-01-29T01:56:28;4.60;99.90
43607;DHT22;29197;44.788;10.366;2023-01-29T01:59:26;4.70;99.90
43607;DHT22;29197;44.788;10.366;2023-01-29T02:02:17;4.70;99.90
43607;DHT22;29197;44.788;10.366;2023-01-29T02:05:24;5.00;99.90
43607;DHT22;29197;44.788;10.366;2023-01-29T02:08:44;4.70;99.90
43607;DHT22;29197;44.788;10.366;2023-01-29T02:11:51;4.80;99.90
43607;DHT22;29197;44.788;10.366;2023-01-29T02:14:41;4.80;99.90
43607;DHT22;29197;44.788;10.366;2023-01-29T02:17:32;4.90;99.90
43607;DHT22;29197;44.788;10.366;2023-01-29T02:20:23;4.80;99.90
43607;DHT22;29197;44.788;10.366;2023-01-29T02:23:28;4.70;99.90
43607;DHT22;29197;44.788;10.366;2023-01-29T02:26:44;4.70;99.90
43607;DHT22;29197;44.788;10.366;2023-01-29T02:29:43;4.70;99.90
43607;DHT22;29197;44.788;10.366;2023-01-29T02:32:38;4.60;99.90
43607;DHT22;29197;44.788;10.366;2023-01-29T02:35:44;4.70;99.90
43607;DHT22;29197;44.788;10.366;2023-01-29T02:41:27;4.50;99.90
43607;DHT22;29197;44.788;10.366;2023-01-29T02:44:23;4.20;99.90
43607;DHT22;29197;44.788;10.366;2023-01-29T02:47:21;4.30;99.90
43607;DHT22;29197;44.788;10.366;2023-01-29T02:50:18;4.50;99.90
43607;DHT22;29197;44.788;10.366;2023-01-29T02:53:11;4.60;99.90
43607;DHT22;29197;44.788;10.366;2023-01-29T02:56:08;4.50;99.90
43607;DHT22;29197;44.788;10.366;2023-01-29T02:58:59;4.40;99.90
43607;DHT22;29197;44.788;10.366;2023-01-29T03:01:53;4.40;99.90
43607;DHT22;29197;44.788;10.366;2023-01-29T03:04:46;4.40;99.90
43607;DHT22;29197;44.788;10.366;2023-01-29T03:07:39;4.40;99.90
43607;DHT22;29197;44.788;10.366;2023-01-29T03:10:33;4.40;99.90
43607;DHT22;29197;44.788;10.366;2023-01-29T03:13:28;4.30;99.90
43607;DHT22;29197;44.788;10.366;2023-01-29T03:16:22;4.30;99.90
43607;DHT22;29197;44.788;10.366;2023-01-29T03:19:14;4.20;99.90
43607;DHT22;29197;44.788;10.366;2023-01-29T03:22:06;4.00;99.90
43607;DHT22;29197;44.788;10.366;2023-01-29T03:24:57;3.70;99.90
43607;DHT22;29197;44.788;10.366;2023-01-29T03:28:05;3.60;99.90
43607;DHT22;29197;44.788;10.366;2023-01-29T03:31:13;2.90;99.90
43607;DHT22;29197;44.788;10.366;2023-01-29T03:34:21;2.80;99.90
43607;DHT22;29197;44.788;10.366;2023-01-29T03:37:19;2.70;99.90
43607;DHT22;29197;44.788;10.366;2023-01-29T03:40:10;3.00;99.90
43607;DHT22;29197;44.788;10.366;2023-01-29T03:43:05;3.00;99.90
43607;DHT22;29197;44.788;10.366;2023-01-29T03:46:01;2.70;99.90
43607;DHT22;29197;44.788;10.366;2023-01-29T03:48:54;3.00;99.90
43607;DHT22;29197;44.788;10.366;2023-01-29T03:51:51;3.30;99.90
43607;DHT22;29197;44.788;10.366;2023-01-29T03:54:48;3.70;99.90
43607;DHT22;29197;44.788;10.366;2023-01-29T04:00:37;4.00;99.90
43607;DHT22;29197;44.788;10.366;2023-01-29T04:03:30;3.90;99.90
43607;DHT22;29197;44.788;10.366;2023-01-29T04:06:22;3.70;99.90
43607;DHT22;29197;44.788;10.366;2023-01-29T04:09:14;3.50;99.90
43607;DHT22;29197;44.788;10.366;2023-01-29T04:12:09;3.30;99.90
43607;DHT22;29197;44.788;10.366;2023-01-29T04:14:59;3.20;99.90
43607;DHT22;29197;44.788;10.366;2023-01-29T04:17:50;3.40;99.90
43607;DHT22;29197;44.788;10.366;2023-01-29T04:20:39;3.60;99.90
43607;DHT22;29197;44.788;10.366;2023-01-29T04:23:28;3.70;99.90
43607;DHT22;29197;44.788;10.366;2023-01-29T04:26:37;3.50;99.90
43607;DHT22;29197;44.788;10.366;2023-01-29T04:32:29;3.70;99.90
43607;DHT22;29197;44.788;10.366;2023-01-29T04:35:28;3.80;99.90
43607;DHT22;29197;44.788;10.366;2023-01-29T04:38:26;3.80;99.90
43607;DHT22;29197;44.788;10.366;2023-01-29T04:41:23;3.90;99.90
43607;DHT22;29197;44.788;10.366;2023-01-29T04:44:19;4.10;99.90
43607;DHT22;29197;44.788;10.366;2023-01-29T04:50:12;4.30;99.90
43607;DHT22;29197;44.788;10.366;2023-01-29T04:53:06;4.40;99.90
43607;DHT22;29197;44.788;10.366;2023-01-29T04:56:02;4.40;99.90
43607;DHT22;29197;44.788;10.366;2023-01-29T04:58:57;4.50;99.90
43607;DHT22;29197;44.788;10.366;2023-01-29T05:01:47;4.50;99.90
43607;DHT22;29197;44.788;10.366;2023-01-29T05:04:39;4.50;99.90
43607;DHT22;29197;44.788;10.366;2023-01-29T05:07:29;4.30;99.90
43607;DHT22;29197;44.788;10.366;2023-01-29T05:10:19;3.70;99.90
43607;DHT22;29197;44.788;10.366;2023-01-29T05:13:11;3.50;99.90
43607;DHT22;29197;44.788;10.366;2023-01-29T05:16:03;3.60;99.90
43607;DHT22;29197;44.788;10.366;2023-01-29T05:18:56;3.80;99.90
43607;DHT22;29197;44.788;10.366;2023-01-29T05:21:47;3.90;99.90
43607;DHT22;29197;44.788;10.366;2023-01-29T05:24:36;3.90;99.90
43607;DHT22;29197;44.788;10.366;2023-01-29T05:27:30;4.00;99.90
43607;DHT22;29197;44.788;10.366;2023-01-29T05:30:38;4.00;99.90
43607;DHT22;29197;44.788;10.366;2023-01-29T05:33:28;4.00;99.90
43607;DHT22;29197;44.788;10.366;2023-01-29T05:36:17;4.00;99.90
43607;DHT22;29197;44.788;10.366;2023-01-29T05:39:07;3.90;99.90
43607;DHT22;29197;44.788;10.366;2023-01-29T05:41:55;3.90;99.90
43607;DHT22;29197;44.788;10.366;2023-01-29T05:44:44;3.90;99.90
43607;DHT22;29197;44.788;10.366;2023-01-29T05:47:32;3.90;99.90
43607;DHT22;29197;44.788;10.366;2023-01-29T05:50:21;3.90;99.90
43607;DHT22;29197;44.788;10.366;2023-01-29T05:53:10;3.90;99.90
43607;DHT22;29197;44.788;10.366;2023-01-29T05:56:01;3.80;99.90
43607;DHT22;29197;44.788;10.366;2023-01-29T05:58:50;3.80;99.90
43607;DHT22;29197;44.788;10.366;2023-01-29T06:01:38;3.70;99.90
43607;DHT22;29197;44.788;10.366;2023-01-29T06:04:27;3.80;99.90
43607;DHT22;29197;44.788;10.366;2023-01-29T06:07:15;3.80;99.90
43607;DHT22;29197;44.788;10.366;2023-01-29T06:10:05;3.80;99.90
43607;DHT22;29197;44.788;10.366;2023-01-29T06:12:55;3.80;99.90
43607;DHT22;29197;44.788;10.366;2023-01-29T06:15:43;3.90;99.90
43607;DHT22;29197;44.788;10.366;2023-01-29T06:18:32;3.90;99.90
43607;DHT22;29197;44.788;10.366;2023-01-29T06:21:20;3.80;99.90
43607;DHT22;29197;44.788;10.366;2023-01-29T06:26:58;3.40;99.90
43607;DHT22;29197;44.788;10.366;2023-01-29T06:29:48;3.40;99.90
43607;DHT22;29197;44.788;10.366;2023-01-29T06:32:36;3.30;99.90
43607;DHT22;29197;44.788;10.366;2023-01-29T06:35:25;2.70;99.90
43607;DHT22;29197;44.788;10.366;2023-01-29T06:38:13;2.60;99.90
43607;DHT22;29197;44.788;10.366;2023-01-29T06:41:08;2.60;99.90
43607;DHT22;29197;44.788;10.366;2023-01-29T06:43:56;2.70;99.90
43607;DHT22;29197;44.788;10.366;2023-01-29T06:46:46;2.90;99.90
43607;DHT22;29197;44.788;10.366;2023-01-29T06:49:35;3.10;99.90
43607;DHT22;29197;44.788;10.366;2023-01-29T06:52:23;3.20;99.90
43607;DHT22;29197;44.788;10.366;2023-01-29T06:55:15;3.20;99.90
43607;DHT22;29197;44.788;10.366;2023-01-29T06:58:09;3.20;99.90
43607;DHT22;29197;44.788;10.366;2023-01-29T07:01:02;2.70;99.90
43607;DHT22;29197;44.788;10.366;2023-01-29T07:03:53;2.60;99.90
43607;DHT22;29197;44.788;10.366;2023-01-29T07:06:41;2.70;99.90
43607;DHT22;29197;44.788;10.366;2023-01-29T07:09:30;2.80;99.90
43607;DHT22;29197;44.788;10.366;2023-01-29T07:12:18;2.80;99.90
43607;DHT22;29197;44.788;10.366;2023-01-29T07:15:08;2.60;99.90
43607;DHT22;29197;44.788;10.366;2023-01-29T07:18:00;2.60;99.90
43607;DHT22;29197;44.788;10.366;2023-01-29T07:20:51;2.40;99.90
43607;DHT22;29197;44.788;10.366;2023-01-29T07:23:40;2.50;99.90
43607;DHT22;29197;44.788;10.366;2023-01-29T07:26:28;2.70;99.90
43607;DHT22;29197;44.788;10.366;2023-01-29T07:29:17;2.90;99.90
43607;DHT22;29197;44.788;10.366;2023-01-29T07:32:05;3.00;99.90
43607;DHT22;29197;44.788;10.366;2023-01-29T07:34:54;3.10;99.90
43607;DHT22;29197;44.788;10.366;2023-01-29T07:40:32;3.30;99.90
43607;DHT22;29197;44.788;10.366;2023-01-29T07:43:21;3.20;99.90
43607;DHT22;29197;44.788;10.366;2023-01-29T07:48:59;3.40;99.90
43607;DHT22;29197;44.788;10.366;2023-01-29T07:51:48;3.70;99.90
43607;DHT22;29197;44.788;10.366;2023-01-29T07:54:38;3.90;99.90
43607;DHT22;29197;44.788;10.366;2023-01-29T08:00:17;4.10;99.90
43607;DHT22;29197;44.788;10.366;2023-01-29T08:03:08;4.50;99.90
43607;DHT22;29197;44.788;10.366;2023-01-29T08:05:58;4.80;99.90
43607;DHT22;29197;44.788;10.366;2023-01-29T08:08:46;5.00;99.90
43607;DHT22;29197;44.788;10.366;2023-01-29T08:11:36;5.20;99.90
43607;DHT22;29197;44.788;10.366;2023-01-29T08:14:24;5.40;99.90
43607;DHT22;29197;44.788;10.366;2023-01-29T08:17:13;5.50;99.90
43607;DHT22;29197;44.788;10.366;2023-01-29T08:20:02;5.80;99.90
43607;DHT22;29197;44.788;10.366;2023-01-29T08:22:58;5.90;99.90
43607;DHT22;29197;44.788;10.366;2023-01-29T08:25:47;6.00;99.90
43607;DHT22;29197;44.788;10.366;2023-01-29T08:28:37;6.10;99.90
43607;DHT22;29197;44.788;10.366;2023-01-29T08:31:26;5.90;99.90
43607;DHT22;29197;44.788;10.366;2023-01-29T08:34:14;5.60;99.90
43607;DHT22;29197;44.788;10.366;2023-01-29T08:37:03;5.40;99.90
43607;DHT22;29197;44.788;10.366;2023-01-29T08:39:51;5.30;99.90
43607;DHT22;29197;44.788;10.366;2023-01-29T08:42:40;5.40;99.90
43607;DHT22;29197;44.788;10.366;2023-01-29T08:45:30;5.20;99.90
43607;DHT22;29197;44.788;10.366;2023-01-29T08:48:18;5.10;99.90
43607;DHT22;29197;44.788;10.366;2023-01-29T08:51:08;4.90;99.90
43607;DHT22;29197;44.788;10.366;2023-01-29T08:53:56;5.30;99.90
43607;DHT22;29197;44.788;10.366;2023-01-29T08:56:45;5.70;99.90
43607;DHT22;29197;44.788;10.366;2023-01-29T08:59:33;6.10;99.90
43607;DHT22;29197;44.788;10.366;2023-01-29T09:02:23;6.40;99.90
43607;DHT22;29197;44.788;10.366;2023-01-29T09:05:12;6.60;99.90
43607;DHT22;29197;44.788;10.366;2023-01-29T09:10:50;6.40;99.90
43607;DHT22;29197;44.788;10.366;2023-01-29T09:13:39;6.50;99.90
43607;DHT22;29197;44.788;10.366;2023-01-29T09:16:28;6.70;99.90
43607;DHT22;29197;44.788;10.366;2023-01-29T09:19:18;6.90;99.90
43607;DHT22;29197;44.788;10.366;2023-01-29T09:22:06;7.10;99.90
43607;DHT22;29197;44.788;10.366;2023-01-29T09:24:57;7.30;99.90
43607;DHT22;29197;44.788;10.366;2023-01-29T09:27:46;7.10;99.90
43607;DHT22;29197;44.788;10.366;2023-01-29T09:30:34;6.90;99.90
43607;DHT22;29197;44.788;10.366;2023-01-29T09:33:24;6.70;99.90
43607;DHT22;29197;44.788;10.366;2023-01-29T09:36:14;7.00;99.90
43607;DHT22;29197;44.788;10.366;2023-01-29T09:39:02;7.20;99.90
43607;DHT22;29197;44.788;10.366;2023-01-29T09:41:55;7.20;99.90
43607;DHT22;29197;44.788;10.366;2023-01-29T09:44:55;7.20;99.90
43607;DHT22;29197;44.788;10.366;2023-01-29T09:47:45;7.30;99.90
43607;DHT22;29197;44.788;10.366;2023-01-29T09:50:37;7.40;99.90
43607;DHT22;29197;44.788;10.366;2023-01-29T09:53:33;7.60;99.90
43607;DHT22;29197;44.788;10.366;2023-01-29T09:56:24;7.80;99.90
43607;DHT22;29197;44.788;10.366;2023-01-29T09:59:16;8.10;99.90
43607;DHT22;29197;44.788;10.366;2023-01-29T10:02:10;8.30;99.90
43607;DHT22;29197;44.788;10.366;2023-01-29T10:05:22;8.40;99.90
43607;DHT22;29197;44.788;10.366;2023-01-29T10:08:45;8.60;99.90
43607;DHT22;29197;44.788;10.366;2023-01-29T10:11:44;8.90;99.90
43607;DHT22;29197;44.788;10.366;2023-01-29T10:14:42;8.80;99.90
43607;DHT22;29197;44.788;10.366;2023-01-29T10:17:46;8.80;99.90
43607;DHT22;29197;44.788;10.366;2023-01-29T10:20:49;9.00;99.90
43607;DHT22;29197;44.788;10.366;2023-01-29T10:23:46;9.20;99.90
43607;DHT22;29197;44.788;10.366;2023-01-29T10:26:37;9.40;99.90
43607;DHT22;29197;44.788;10.366;2023-01-29T10:29:27;9.50;99.90
43607;DHT22;29197;44.788;10.366;2023-01-29T10:32:18;9.60;99.90
43607;DHT22;29197;44.788;10.366;2023-01-29T10:35:17;9.60;99.90
43607;DHT22;29197;44.788;10.366;2023-01-29T10:38:18;9.40;99.90
43607;DHT22;29197;44.788;10.366;2023-01-29T10:41:23;9.40;99.90
43607;DHT22;29197;44.788;10.366;2023-01-29T10:44:25;9.60;99.90
43607;DHT22;29197;44.788;10.366;2023-01-29T10:47:35;9.80;99.90
43607;DHT22;29197;44.788;10.366;2023-01-29T10:50:39;9.90;99.90
43607;DHT22;29197;44.788;10.366;2023-01-29T10:53:41;10.00;99.90
43607;DHT22;29197;44.788;10.366;2023-01-29T10:56:43;10.10;99.90
43607;DHT22;29197;44.788;10.366;2023-01-29T10:59:48;10.30;99.90
43607;DHT22;29197;44.788;10.366;2023-01-29T11:02:43;10.40;99.90
43607;DHT22;29197;44.788;10.366;2023-01-29T11:05:37;10.50;99.90
43607;DHT22;29197;44.788;10.366;2023-01-29T11:08:33;10.50;99.90
43607;DHT22;29197;44.788;10.366;2023-01-29T11:11:32;10.60;99.90
43607;DHT22;29197;44.788;10.366;2023-01-29T11:14:25;10.80;99.90
43607;DHT22;29197;44.788;10.366;2023-01-29T11:17:15;10.80;99.90
43607;DHT22;29197;44.788;10.366;2023-01-29T11:20:11;10.90;99.90
43607;DHT22;29197;44.788;10.366;2023-01-29T11:23:26;11.00;99.90
43607;DHT22;29197;44.788;10.366;2023-01-29T11:26:18;11.10;99.90
43607;DHT22;29197;44.788;10.366;2023-01-29T11:29:29;11.10;99.90
43607;DHT22;29197;44.788;10.366;2023-01-29T11:32:25;11.30;99.90
43607;DHT22;29197;44.788;10.366;2023-01-29T11:35:23;11.30;99.90
43607;DHT22;29197;44.788;10.366;2023-01-29T11:38:18;11.40;99.90
43607;DHT22;29197;44.788;10.366;2023-01-29T11:41:15;11.50;99.90
43607;DHT22;29197;44.788;10.366;2023-01-29T11:44:20;11.60;99.90
43607;DHT22;29197;44.788;10.366;2023-01-29T11:47:17;11.50;99.90
43607;DHT22;29197;44.788;10.366;2023-01-29T11:50:16;11.60;99.90
43607;DHT22;29197;44.788;10.366;2023-01-29T11:53:21;11.70;99.90
43607;DHT22;29197;44.788;10.366;2023-01-29T11:56:20;11.90;99.90
43607;DHT22;29197;44.788;10.366;2023-01-29T11:59:25;12.00;99.90
43607;DHT22;29197;44.788;10.366;2023-01-29T12:02:25;12.10;99.90
43607;DHT22;29197;44.788;10.366;2023-01-29T12:05:18;12.10;99.90
43607;DHT22;29197;44.788;10.366;2023-01-29T12:08:16;12.40;99.90
43607;DHT22;29197;44.788;10.366;2023-01-29T12:11:10;12.40;99.90
43607;DHT22;29197;44.788;10.366;2023-01-29T12:14:01;12.40;99.90
43607;DHT22;29197;44.788;10.366;2023-01-29T12:16:53;12.50;99.90
43607;DHT22;29197;44.788;10.366;2023-01-29T12:19:47;12.60;99.90
43607;DHT22;29197;44.788;10.366;2023-01-29T12:22:41;12.70;99.90
43607;DHT22;29197;44.788;10.366;2023-01-29T12:25:39;12.70;99.90
43607;DHT22;29197;44.788;10.366;2023-01-29T12:28:36;12.90;99.90
43607;DHT22;29197;44.788;10.366;2023-01-29T12:31:33;13.10;99.90
43607;DHT22;29197;44.788;10.366;2023-01-29T12:34:29;13.30;99.90
43607;DHT22;29197;44.788;10.366;2023-01-29T12:37:26;13.40;99.90
43607;DHT22;29197;44.788;10.366;2023-01-29T12:40:18;13.40;99.90
43607;DHT22;29197;44.788;10.366;2023-01-29T12:43:13;13.40;99.90
43607;DHT22;29197;44.788;10.366;2023-01-29T12:46:05;13.60;99.90
43607;DHT22;29197;44.788;10.366;2023-01-29T12:48:59;13.70;99.90
43607;DHT22;29197;44.788;10.366;2023-01-29T12:51:53;13.80;99.90
43607;DHT22;29197;44.788;10.366;2023-01-29T12:54:49;14.00;99.90
43607;DHT22;29197;44.788;10.366;2023-01-29T12:57:46;13.90;99.90
43607;DHT22;29197;44.788;10.366;2023-01-29T13:00:38;13.90;99.90
43607;DHT22;29197;44.788;10.366;2023-01-29T13:03:33;14.00;99.90
43607;DHT22;29197;44.788;10.366;2023-01-29T13:06:29;14.10;99.90
43607;DHT22;29197;44.788;10.366;2023-01-29T13:09:21;14.10;99.90
43607;DHT22;29197;44.788;10.366;2023-01-29T13:12:15;14.20;99.90
43607;DHT22;29197;44.788;10.366;2023-01-29T13:15:11;14.20;99.90
43607;DHT22;29197;44.788;10.366;2023-01-29T13:18:29;14.20;99.90
43607;DHT22;29197;44.788;10.366;2023-01-29T13:21:21;14.20;99.90
43607;DHT22;29197;44.788;10.366;2023-01-29T13:24:13;14.20;99.90
43607;DHT22;29197;44.788;10.366;2023-01-29T13:27:03;14.20;99.90
43607;DHT22;29197;44.788;10.366;2023-01-29T13:29:54;14.30;99.90
43607;DHT22;29197;44.788;10.366;2023-01-29T13:32:49;14.30;99.90
43607;DHT22;29197;44.788;10.366;2023-01-29T13:35:40;14.20;99.90
43607;DHT22;29197;44.788;10.366;2023-01-29T13:38:30;14.20;99.90
43607;DHT22;29197;44.788;10.366;2023-01-29T13:41:31;14.20;99.90
43607;DHT22;29197;44.788;10.366;2023-01-29T13:44:23;14.10;99.90
43607;DHT22;29197;44.788;10.366;2023-01-29T13:47:22;14.00;99.90
43607;DHT22;29197;44.788;10.366;2023-01-29T13:50:18;13.90;99.90
43607;DHT22;29197;44.788;10.366;2023-01-29T13:53:19;13.90;99.90
43607;DHT22;29197;44.788;10.366;2023-01-29T13:56:33;13.80;99.90
43607;DHT22;29197;44.788;10.366;2023-01-29T13:59:48;13.70;99.90
43607;DHT22;29197;44.788;10.366;2023-01-29T14:02:38;13.60;99.90
43607;DHT22;29197;44.788;10.366;2023-01-29T14:05:40;13.60;99.90
43607;DHT22;29197;44.788;10.366;2023-01-29T14:08:40;13.40;99.90
43607;DHT22;29197;44.788;10.366;2023-01-29T14:11:34;13.30;99.90
43607;DHT22;29197;44.788;10.366;2023-01-29T14:14:58;13.30;99.90
43607;DHT22;29197;44.788;10.366;2023-01-29T14:21:20;12.90;99.90
43607;DHT22;29197;44.788;10.366;2023-01-29T14:24:16;12.70;99.90
43607;DHT22;29197;44.788;10.366;2023-01-29T14:27:19;12.50;99.90
43607;DHT22;29197;44.788;10.366;2023-01-29T14:30:16;12.40;99.90
43607;DHT22;29197;44.788;10.366;2023-01-29T14:33:32;12.20;99.90
43607;DHT22;29197;44.788;10.366;2023-01-29T14:36:24;12.10;99.90
43607;DHT22;29197;44.788;10.366;2023-01-29T14:39:21;12.00;99.90
43607;DHT22;29197;44.788;10.366;2023-01-29T14:42:19;11.70;99.90
43607;DHT22;29197;44.788;10.366;2023-01-29T14:48:36;11.40;99.90
43607;DHT22;29197;44.788;10.366;2023-01-29T14:51:26;11.10;99.90
43607;DHT22;29197;44.788;10.366;2023-01-29T15:04:21;10.70;99.90
43607;DHT22;29197;44.788;10.366;2023-01-29T15:07:22;10.50;99.90
43607;DHT22;29197;44.788;10.366;2023-01-29T15:10:16;10.40;99.90
43607;DHT22;29197;44.788;10.366;2023-01-29T15:13:17;10.40;99.90
43607;DHT22;29197;44.788;10.366;2023-01-29T15:16:12;10.40;99.90
43607;DHT22;29197;44.788;10.366;2023-01-29T15:19:10;10.40;99.90
43607;DHT22;29197;44.788;10.366;2023-01-29T15:22:07;10.40;99.90
43607;DHT22;29197;44.788;10.366;2023-01-29T15:25:04;10.30;99.90
43607;DHT22;29197;44.788;10.366;2023-01-29T15:27:55;10.30;99.90
43607;DHT22;29197;44.788;10.366;2023-01-29T15:30:44;10.30;99.90
43607;DHT22;29197;44.788;10.366;2023-01-29T15:33:34;10.20;99.90
43607;DHT22;29197;44.788;10.366;2023-01-29T15:36:26;10.10;99.90
43607;DHT22;29197;44.788;10.366;2023-01-29T15:39:19;10.00;99.90
43607;DHT22;29197;44.788;10.366;2023-01-29T15:42:12;9.80;99.90
43607;DHT22;29197;44.788;10.366;2023-01-29T15:45:02;9.70;99.90
43607;DHT22;29197;44.788;10.366;2023-01-29T15:47:52;9.60;99.90
43607;DHT22;29197;44.788;10.366;2023-01-29T15:50:42;9.50;99.90
43607;DHT22;29197;44.788;10.366;2023-01-29T15:53:35;9.60;99.90
43607;DHT22;29197;44.788;10.366;2023-01-29T15:56:29;9.40;99.90
43607;DHT22;29197;44.788;10.366;2023-01-29T15:59:22;9.40;99.90
43607;DHT22;29197;44.788;10.366;2023-01-29T16:02:20;9.30;99.90
43607;DHT22;29197;44.788;10.366;2023-01-29T16:05:16;9.20;99.90
43607;DHT22;29197;44.788;10.366;2023-01-29T16:08:08;9.20;99.90
43607;DHT22;29197;44.788;10.366;2023-01-29T16:11:02;9.10;99.90
43607;DHT22;29197;44.788;10.366;2023-01-29T16:13:52;9.20;99.90
43607;DHT22;29197;44.788;10.366;2023-01-29T16:16:41;9.10;99.90
43607;DHT22;29197;44.788;10.366;2023-01-29T16:19:31;9.10;99.90
43607;DHT22;29197;44.788;10.366;2023-01-29T16:22:19;9.00;99.90
43607;DHT22;29197;44.788;10.366;2023-01-29T16:28:03;8.90;99.90
43607;DHT22;29197;44.788;10.366;2023-01-29T16:30:56;8.80;99.90
43607;DHT22;29197;44.788;10.366;2023-01-29T16:33:50;8.80;99.90
43607;DHT22;29197;44.788;10.366;2023-01-29T16:36:43;8.80;99.90
43607;DHT22;29197;44.788;10.366;2023-01-29T16:39:35;8.80;99.90
43607;DHT22;29197;44.788;10.366;2023-01-29T16:42:27;8.70;99.90
43607;DHT22;29197;44.788;10.366;2023-01-29T16:45:26;8.70;99.90
43607;DHT22;29197;44.788;10.366;2023-01-29T16:48:25;8.60;99.90
43607;DHT22;29197;44.788;10.366;2023-01-29T16:51:21;8.60;99.90
43607;DHT22;29197;44.788;10.366;2023-01-29T16:54:12;8.60;99.90
43607;DHT22;29197;44.788;10.366;2023-01-29T16:57:04;8.50;99.90
43607;DHT22;29197;44.788;10.366;2023-01-29T16:59:54;8.50;99.90
43607;DHT22;29197;44.788;10.366;2023-01-29T17:02:44;8.40;99.90
43607;DHT22;29197;44.788;10.366;2023-01-29T17:05:36;8.30;99.90
43607;DHT22;29197;44.788;10.366;2023-01-29T17:08:28;8.20;99.90
43607;DHT22;29197;44.788;10.366;2023-01-29T17:11:24;8.20;99.90
43607;DHT22;29197;44.788;10.366;2023-01-29T17:14:18;8.20;99.90
43607;DHT22;29197;44.788;10.366;2023-01-29T17:17:14;8.10;99.90
43607;DHT22;29197;44.788;10.366;2023-01-29T17:20:12;8.10;99.90
43607;DHT22;29197;44.788;10.366;2023-01-29T17:23:02;8.10;99.90
43607;DHT22;29197;44.788;10.366;2023-01-29T17:25:51;8.10;99.90
43607;DHT22;29197;44.788;10.366;2023-01-29T17:28:39;8.00;99.90
43607;DHT22;29197;44.788;10.366;2023-01-29T17:31:28;8.00;99.90
43607;DHT22;29197;44.788;10.366;2023-01-29T17:34:17;7.90;99.90
43607;DHT22;29197;44.788;10.366;2023-01-29T17:37:07;7.90;99.90
43607;DHT22;29197;44.788;10.366;2023-01-29T17:39:57;7.90;99.90
43607;DHT22;29197;44.788;10.366;2023-01-29T17:42:48;7.90;99.90
43607;DHT22;29197;44.788;10.366;2023-01-29T17:45:37;7.80;99.90
43607;DHT22;29197;44.788;10.366;2023-01-29T17:48:27;7.80;99.90
43607;DHT22;29197;44.788;10.366;2023-01-29T17:51:17;7.70;99.90
43607;DHT22;29197;44.788;10.366;2023-01-29T17:54:06;7.60;99.90
43607;DHT22;29197;44.788;10.366;2023-01-29T17:56:56;7.60;99.90
43607;DHT22;29197;44.788;10.366;2023-01-29T17:59:45;7.60;99.90
43607;DHT22;29197;44.788;10.366;2023-01-29T18:02:33;7.50;99.90
43607;DHT22;29197;44.788;10.366;2023-01-29T18:05:22;7.50;99.90
43607;DHT22;29197;44.788;10.366;2023-01-29T18:08:15;7.50;99.90
43607;DHT22;29197;44.788;10.366;2023-01-29T18:11:04;7.50;99.90
43607;DHT22;29197;44.788;10.366;2023-01-29T18:13:55;7.60;99.90
43607;DHT22;29197;44.788;10.366;2023-01-29T18:19:33;7.30;99.90
43607;DHT22;29197;44.788;10.366;2023-01-29T18:22:21;7.40;99.90
43607;DHT22;29197;44.788;10.366;2023-01-29T18:25:10;7.70;99.90
43607;DHT22;29197;44.788;10.366;2023-01-29T18:27:58;7.00;99.90
43607;DHT22;29197;44.788;10.366;2023-01-29T18:30:48;6.90;99.90
43607;DHT22;29197;44.788;10.366;2023-01-29T18:33:37;6.90;99.90
43607;DHT22;29197;44.788;10.366;2023-01-29T18:36:25;6.90;99.90
43607;DHT22;29197;44.788;10.366;2023-01-29T18:39:14;6.60;99.90
43607;DHT22;29197;44.788;10.366;2023-01-29T18:42:03;6.30;99.90
43607;DHT22;29197;44.788;10.366;2023-01-29T18:44:51;6.30;99.90
43607;DHT22;29197;44.788;10.366;2023-01-29T18:47:41;6.50;99.90
43607;DHT22;29197;44.788;10.366;2023-01-29T18:50:30;6.60;99.90
43607;DHT22;29197;44.788;10.366;2023-01-29T18:53:18;6.70;99.90
43607;DHT22;29197;44.788;10.366;2023-01-29T18:56:08;6.70;99.90
43607;DHT22;29197;44.788;10.366;2023-01-29T18:58:57;6.60;99.90
43607;DHT22;29197;44.788;10.366;2023-01-29T19:01:45;6.70;99.90
43607;DHT22;29197;44.788;10.366;2023-01-29T19:04:35;6.50;99.90
43607;DHT22;29197;44.788;10.366;2023-01-29T19:07:23;6.60;99.90
43607;DHT22;29197;44.788;10.366;2023-01-29T19:10:12;6.50;99.90
43607;DHT22;29197;44.788;10.366;2023-01-29T19:13:02;6.50;99.90
43607;DHT22;29197;44.788;10.366;2023-01-29T19:27:11;4.90;99.90
43607;DHT22;29197;44.788;10.366;2023-01-29T19:30:00;4.90;99.90
43607;DHT22;29197;44.788;10.366;2023-01-29T19:32:52;5.00;99.90
43607;DHT22;29197;44.788;10.366;2023-01-29T19:35:43;5.00;99.90
43607;DHT22;29197;44.788;10.366;2023-01-29T19:38:33;5.00;99.90
43607;DHT22;29197;44.788;10.366;2023-01-29T19:41:24;4.80;99.90
43607;DHT22;29197;44.788;10.366;2023-01-29T19:44:13;4.90;99.90
43607;DHT22;29197;44.788;10.366;2023-01-29T19:47:01;4.50;99.90
43607;DHT22;29197;44.788;10.366;2023-01-29T19:49:51;4.70;99.90
43607;DHT22;29197;44.788;10.366;2023-01-29T19:52:39;4.70;99.90
43607;DHT22;29197;44.788;10.366;2023-01-29T19:55:39;4.80;99.90
43607;DHT22;29197;44.788;10.366;2023-01-29T19:58:28;4.80;99.90
43607;DHT22;29197;44.788;10.366;2023-01-29T20:01:18;4.80;99.90